Time,TemperatureF,DewpointF,PressureIn,WindDirection,WindDirectionDegrees,WindSpeedMPH,WindSpeedGustMPH,Humidity,HourlyPrecipIn,Conditions,Clouds,dailyrainin,SoftwareType,DateUTC
2013-01-23 00:02:00,8.8,-20.6,30.17,West,276,0.0,0.0,24,0.00,,,0.00,WeatherTracker,2013-01-23 05:02:00,
2013-01-23 00:03:00,8.8,-20.6,30.17,West,276,0.0,0.0,24,0.00,,,0.00,WeatherTracker,2013-01-23 05:03:00,
2013-01-23 00:09:00,8.8,-20.6,30.17,West,265,2.0,0.0,24,0.00,,,0.00,WeatherTracker,2013-01-23 05:09:00,
2013-01-23 00:14:00,8.6,-20.7,30.17,WSW,239,0.0,0.0,24,0.00,,,0.00,WeatherTracker,2013-01-23 05:14:00,
2013-01-23 00:19:00,8.6,-20.7,30.17,WNW,284,0.0,0.0,24,0.00,,,0.00,WeatherTracker,2013-01-23 05:19:00,
2013-01-23 00:24:00,8.6,-20.7,30.17,West,259,0.0,0.0,24,0.00,,,0.00,WeatherTracker,2013-01-23 05:24:00,
2013-01-23 00:29:00,8.6,-20.7,30.17,NW,326,0.0,0.0,24,0.00,,,0.00,WeatherTracker,2013-01-23 05:29:00,
2013-01-23 00:34:00,8.6,-20.7,30.17,SW,231,0.0,3.0,24,0.00,,,0.00,WeatherTracker,2013-01-23 05:34:00,
2013-01-23 00:39:00,8.6,-20.7,30.17,West,260,0.0,3.0,24,0.00,,,0.00,WeatherTracker,2013-01-23 05:39:00,
2013-01-23 00:44:00,8.8,-20.6,30.17,West,259,0.0,0.0,24,0.00,,,0.00,WeatherTracker,2013-01-23 05:44:00,
2013-01-23 00:49:00,8.8,-20.6,30.17,West,263,0.0,0.0,24,0.00,,,0.00,WeatherTracker,2013-01-23 05:49:00,
2013-01-23 00:54:00,8.6,-20.7,30.17,West,269,0.0,0.0,24,0.00,,,0.00,WeatherTracker,2013-01-23 05:54:00,
2013-01-23 00:59:00,8.8,-20.6,30.17,WNW,291,0.0,0.0,24,0.00,,,0.00,WeatherTracker,2013-01-23 05:59:00,
2013-01-23 01:04:00,8.6,-20.7,30.17,West,264,0.0,0.0,24,0.00,,,0.00,WeatherTracker,2013-01-23 06:04:00,
2013-01-23 01:09:00,8.6,-20.7,30.17,North,353,0.0,0.0,24,0.00,,,0.00,WeatherTracker,2013-01-23 06:09:00,
2013-01-23 01:14:00,8.6,-20.7,30.17,NW,307,0.0,0.0,24,0.00,,,0.00,WeatherTracker,2013-01-23 06:14:00,
2013-01-23 01:19:00,8.6,-20.7,30.17,WNW,299,0.0,0.0,24,0.00,,,0.00,WeatherTracker,2013-01-23 06:19:00,
2013-01-23 01:24:00,8.6,-20.7,30.17,North,7,2.0,0.0,24,0.00,,,0.00,WeatherTracker,2013-01-23 06:24:00,
2013-01-23 01:29:00,8.6,-20.7,30.17,WNW,290,2.0,4.0,24,0.00,,,0.00,WeatherTracker,2013-01-23 06:29:00,
2013-01-23 01:34:00,8.4,-20.9,30.17,WNW,289,2.0,0.0,24,0.00,,,0.00,WeatherTracker,2013-01-23 06:34:00,
2013-01-23 01:39:00,8.2,-21.0,30.17,NNW,334,0.0,0.0,24,0.00,,,0.00,WeatherTracker,2013-01-23 06:39:00,
2013-01-23 01:44:00,8.2,-21.0,30.17,NW,305,0.0,0.0,24,0.00,,,0.00,WeatherTracker,2013-01-23 06:44:00,
2013-01-23 01:49:00,8.2,-21.0,30.17,West,277,2.0,3.0,24,0.00,,,0.00,WeatherTracker,2013-01-23 06:49:00,
2013-01-23 01:54:00,8.1,-21.2,30.17,North,8,0.0,0.0,24,0.00,,,0.00,WeatherTracker,2013-01-23 06:54:00,
2013-01-23 01:59:00,8.1,-21.2,30.17,WNW,284,3.0,3.0,24,0.00,,,0.00,WeatherTracker,2013-01-23 06:59:00,
2013-01-23 02:04:00,8.1,-21.2,30.17,West,279,0.0,3.0,24,0.00,,,0.00,WeatherTracker,2013-01-23 07:04:00,
2013-01-23 02:09:00,7.9,-21.3,30.17,SW,235,0.0,0.0,24,0.00,,,0.00,WeatherTracker,2013-01-23 07:09:00,
2013-01-23 02:14:00,7.9,-21.3,30.17,WNW,288,0.0,0.0,24,0.00,,,0.00,WeatherTracker,2013-01-23 07:14:00,
2013-01-23 02:19:00,7.9,-21.3,30.17,West,265,0.0,0.0,24,0.00,,,0.00,WeatherTracker,2013-01-23 07:19:00,
2013-01-23 02:24:00,7.9,-21.3,30.17,West,259,0.0,0.0,24,0.00,,,0.00,WeatherTracker,2013-01-23 07:24:00,
2013-01-23 02:29:00,7.9,-21.3,30.17,West,260,0.0,0.0,24,0.00,,,0.00,WeatherTracker,2013-01-23 07:29:00,
2013-01-23 02:34:00,7.9,-21.3,30.17,West,278,0.0,0.0,24,0.00,,,0.00,WeatherTracker,2013-01-23 07:34:00,
2013-01-23 02:39:00,7.7,-21.5,30.17,NNW,329,0.0,0.0,24,0.00,,,0.00,WeatherTracker,2013-01-23 07:39:00,
2013-01-23 02:44:00,7.7,-21.5,30.17,NW,304,0.0,0.0,24,0.00,,,0.00,WeatherTracker,2013-01-23 07:44:00,
2013-01-23 02:49:00,7.7,-21.5,30.17,NW,322,0.0,3.0,24,0.00,,,0.00,WeatherTracker,2013-01-23 07:49:00,
2013-01-23 02:54:00,7.7,-21.5,30.17,WNW,286,0.0,0.0,24,0.00,,,0.00,WeatherTracker,2013-01-23 07:54:00,
2013-01-23 02:59:00,7.7,-21.5,30.17,NW,317,0.0,0.0,24,0.00,,,0.00,WeatherTracker,2013-01-23 07:59:00,
2013-01-23 03:04:00,7.7,-21.5,30.17,WNW,301,0.0,0.0,24,0.00,,,0.00,WeatherTracker,2013-01-23 08:04:00,
2013-01-23 03:09:00,7.7,-21.5,30.17,WNW,301,0.0,0.0,24,0.00,,,0.00,WeatherTracker,2013-01-23 08:09:00,
2013-01-23 03:14:00,7.7,-21.5,30.17,WNW,294,2.0,0.0,24,0.00,,,0.00,WeatherTracker,2013-01-23 08:14:00,
2013-01-23 03:19:00,7.7,-21.5,30.17,WNW,288,0.0,0.0,24,0.00,,,0.00,WeatherTracker,2013-01-23 08:19:00,
2013-01-23 03:24:00,7.7,-21.5,30.17,West,265,0.0,0.0,24,0.00,,,0.00,WeatherTracker,2013-01-23 08:24:00,
2013-01-23 03:29:00,7.5,-21.6,30.17,WNW,282,0.0,0.0,24,0.00,,,0.00,WeatherTracker,2013-01-23 08:29:00,
2013-01-23 03:34:00,7.5,-21.6,30.17,SW,233,0.0,0.0,24,0.00,,,0.00,WeatherTracker,2013-01-23 08:34:00,
2013-01-23 03:39:00,7.5,-21.6,30.17,NW,317,4.0,0.0,24,0.00,,,0.00,WeatherTracker,2013-01-23 08:39:00,
2013-01-23 03:44:00,7.5,-21.6,30.17,NW,306,0.0,3.0,24,0.00,,,0.00,WeatherTracker,2013-01-23 08:44:00,
2013-01-23 03:49:00,7.5,-21.6,30.17,WNW,287,0.0,0.0,24,0.00,,,0.00,WeatherTracker,2013-01-23 08:49:00,
2013-01-23 03:54:00,7.5,-21.6,30.17,WNW,288,0.0,0.0,24,0.00,,,0.00,WeatherTracker,2013-01-23 08:54:00,
2013-01-23 03:59:00,7.5,-21.6,30.17,WNW,288,0.0,0.0,24,0.00,,,0.00,WeatherTracker,2013-01-23 08:59:00,
2013-01-23 04:04:00,7.5,-21.6,30.17,WNW,288,0.0,0.0,24,0.00,,,0.00,WeatherTracker,2013-01-23 09:04:00,
2013-01-23 04:09:00,7.5,-21.6,30.17,WSW,257,0.0,3.0,24,0.00,,,0.00,WeatherTracker,2013-01-23 09:09:00,
2013-01-23 04:14:00,7.3,-21.8,30.17,WSW,257,0.0,0.0,24,0.00,,,0.00,WeatherTracker,2013-01-23 09:14:00,
2013-01-23 04:19:00,7.3,-21.8,30.17,WSW,258,0.0,0.0,24,0.00,,,0.00,WeatherTracker,2013-01-23 09:19:00,
2013-01-23 04:24:00,7.3,-21.8,30.17,WSW,257,0.0,0.0,24,0.00,,,0.00,WeatherTracker,2013-01-23 09:24:00,
2013-01-23 04:29:00,7.2,-21.9,30.17,WSW,258,0.0,0.0,24,0.00,,,0.00,WeatherTracker,2013-01-23 09:29:00,
2013-01-23 04:34:00,7.2,-21.9,30.17,WSW,257,0.0,0.0,24,0.00,,,0.00,WeatherTracker,2013-01-23 09:34:00,
2013-01-23 04:39:00,7.2,-21.9,30.17,WSW,257,0.0,0.0,24,0.00,,,0.00,WeatherTracker,2013-01-23 09:39:00,
2013-01-23 04:44:00,7.0,-22.1,30.17,WSW,257,0.0,0.0,24,0.00,,,0.00,WeatherTracker,2013-01-23 09:44:00,
2013-01-23 04:49:00,6.8,-22.3,30.17,WSW,257,0.0,0.0,24,0.00,,,0.00,WeatherTracker,2013-01-23 09:49:00,
2013-01-23 04:54:00,6.8,-22.3,30.17,WSW,258,0.0,0.0,24,0.00,,,0.00,WeatherTracker,2013-01-23 09:54:00,
2013-01-23 04:59:00,6.6,-22.4,30.17,WSW,257,0.0,0.0,24,0.00,,,0.00,WeatherTracker,2013-01-23 09:59:00,
2013-01-23 05:04:00,6.4,-22.6,30.17,WSW,257,0.0,0.0,24,0.00,,,0.00,WeatherTracker,2013-01-23 10:04:00,
2013-01-23 05:09:00,6.3,-22.7,30.17,WSW,257,0.0,0.0,24,0.00,,,0.00,WeatherTracker,2013-01-23 10:09:00,
2013-01-23 05:14:00,6.3,-22.7,30.17,WSW,257,0.0,0.0,24,0.00,,,0.00,WeatherTracker,2013-01-23 10:14:00,
2013-01-23 05:19:00,6.3,-22.7,30.17,WSW,258,0.0,0.0,24,0.00,,,0.00,WeatherTracker,2013-01-23 10:19:00,
2013-01-23 05:24:00,6.3,-22.7,30.17,WSW,257,0.0,0.0,24,0.00,,,0.00,WeatherTracker,2013-01-23 10:24:00,
2013-01-23 05:29:00,6.3,-22.7,30.17,WSW,258,0.0,0.0,24,0.00,,,0.00,WeatherTracker,2013-01-23 10:29:00,
2013-01-23 05:34:00,6.1,-22.9,30.17,WSW,257,0.0,0.0,24,0.00,,,0.00,WeatherTracker,2013-01-23 10:34:00,
2013-01-23 10:20:00,10.2,-19.3,30.14,SSE,168,0.0,0.0,24,0.00,,,0.00,WeatherTracker,2013-01-23 15:20:00,
2013-01-23 10:25:00,10.6,-19.0,30.14,SSW,210,0.0,0.0,24,0.00,,,0.00,WeatherTracker,2013-01-23 15:25:00,
2013-01-23 10:30:00,10.8,-18.8,30.14,South,181,0.0,2.0,24,0.00,,,0.00,WeatherTracker,2013-01-23 15:30:00,
2013-01-23 10:35:00,11.1,-18.5,30.14,SSE,158,0.0,0.0,24,0.00,,,0.00,WeatherTracker,2013-01-23 15:35:00,
2013-01-23 10:41:00,11.3,-18.4,30.14,West,269,0.0,0.0,24,0.00,,,0.00,WeatherTracker,2013-01-23 15:41:00,
2013-01-23 10:46:00,11.5,-18.2,30.14,SW,235,0.0,3.0,24,0.00,,,0.00,WeatherTracker,2013-01-23 15:46:00,
2013-01-23 10:51:00,11.5,-18.2,30.14,SW,229,0.0,0.0,24,0.00,,,0.00,WeatherTracker,2013-01-23 15:51:00,
2013-01-23 10:56:00,11.5,-18.2,30.14,West,266,3.0,4.0,24,0.00,,,0.00,WeatherTracker,2013-01-23 15:56:00,
2013-01-23 11:01:00,11.3,-18.4,30.14,SW,222,0.0,0.0,24,0.00,,,0.00,WeatherTracker,2013-01-23 16:01:00,
2013-01-23 11:06:00,11.7,-18.1,30.14,West,264,0.0,0.0,24,0.00,,,0.00,WeatherTracker,2013-01-23 16:06:00,
2013-01-23 11:11:00,12.0,-17.8,30.14,SW,226,0.0,3.0,24,0.00,,,0.00,WeatherTracker,2013-01-23 16:11:00,
2013-01-23 11:16:00,12.6,-17.3,30.14,NNW,338,3.0,0.0,24,0.00,,,0.00,WeatherTracker,2013-01-23 16:16:00,
2013-01-23 11:21:00,12.7,-17.1,30.14,South,181,0.0,0.0,24,0.00,,,0.00,WeatherTracker,2013-01-23 16:21:00,
2013-01-23 11:26:00,12.7,-17.1,30.14,West,260,0.0,3.0,24,0.00,,,0.00,WeatherTracker,2013-01-23 16:26:00,
2013-01-23 11:31:00,12.9,-17.0,30.14,West,276,0.0,4.0,24,0.00,,,0.00,WeatherTracker,2013-01-23 16:31:00,
2013-01-23 11:36:00,13.1,-16.8,30.14,South,187,3.0,0.0,24,0.00,,,0.00,WeatherTracker,2013-01-23 16:36:00,
2013-01-23 11:41:00,13.3,-16.7,30.14,West,264,0.0,2.0,24,0.00,,,0.00,WeatherTracker,2013-01-23 16:41:00,
2013-01-23 11:46:00,13.5,-16.5,30.14,West,273,0.0,0.0,24,0.00,,,0.00,WeatherTracker,2013-01-23 16:46:00,
2013-01-23 11:51:00,13.6,-16.4,30.14,SW,232,0.0,0.0,24,0.00,,,0.00,WeatherTracker,2013-01-23 16:51:00,
2013-01-23 11:56:00,13.6,-16.4,30.14,SW,225,0.0,5.0,24,0.00,,,0.00,WeatherTracker,2013-01-23 16:56:00,
2013-01-23 12:01:00,13.8,-16.2,30.14,SSW,198,0.0,2.0,24,0.00,,,0.00,WeatherTracker,2013-01-23 17:01:00,
2013-01-23 12:06:00,13.8,-16.2,30.11,SSE,151,0.0,3.0,24,0.00,,,0.00,WeatherTracker,2013-01-23 17:06:00,
2013-01-23 12:11:00,13.8,-16.2,30.11,WSW,238,0.0,0.0,24,0.00,,,0.00,WeatherTracker,2013-01-23 17:11:00,
2013-01-23 12:16:00,13.8,-12.5,30.11,West,266,4.0,4.0,29,0.00,,,0.00,WeatherTracker,2013-01-23 17:16:00,
2013-01-23 12:21:00,13.8,-12.5,30.11,WSW,238,2.0,2.0,29,0.00,,,0.00,WeatherTracker,2013-01-23 17:21:00,
2013-01-23 12:26:00,14.2,-12.2,30.11,SSW,195,0.0,3.0,29,0.00,,,0.00,WeatherTracker,2013-01-23 17:26:00,
2013-01-23 12:31:00,14.4,-12.0,30.11,WSW,247,0.0,0.0,29,0.00,,,0.00,WeatherTracker,2013-01-23 17:31:00,
2013-01-23 12:36:00,14.9,-10.2,30.11,SE,144,0.0,5.0,31,0.00,,,0.00,WeatherTracker,2013-01-23 17:36:00,
2013-01-23 12:41:00,15.4,-9.7,30.11,SW,224,0.0,4.0,31,0.00,,,0.00,WeatherTracker,2013-01-23 17:41:00,
2013-01-23 12:46:00,15.8,-9.4,30.11,WSW,247,3.0,0.0,31,0.00,,,0.00,WeatherTracker,2013-01-23 17:46:00,
2013-01-23 12:51:00,15.8,-9.4,30.08,WNW,290,0.0,4.0,31,0.00,,,0.00,WeatherTracker,2013-01-23 17:51:00,
2013-01-23 12:56:00,15.6,-10.9,30.08,SW,233,3.0,0.0,29,0.00,,,0.00,WeatherTracker,2013-01-23 17:56:00,
2013-01-23 13:01:00,15.6,-10.9,30.08,SW,218,2.0,3.0,29,0.00,,,0.00,WeatherTracker,2013-01-23 18:01:00,
2013-01-23 13:06:00,15.8,-10.8,30.08,West,275,2.0,2.0,29,0.00,,,0.00,WeatherTracker,2013-01-23 18:06:00,
2013-01-23 13:11:00,16.2,-11.1,30.08,West,272,2.0,5.0,28,0.00,,,0.00,WeatherTracker,2013-01-23 18:11:00,
2013-01-23 13:16:00,16.5,-10.8,30.08,SW,218,2.0,0.0,28,0.00,,,0.00,WeatherTracker,2013-01-23 18:16:00,
2013-01-23 13:21:00,16.7,-10.7,30.08,SW,222,4.0,0.0,28,0.00,,,0.00,WeatherTracker,2013-01-23 18:21:00,
2013-01-23 13:26:00,16.7,-10.7,30.08,SW,235,0.0,4.0,28,0.00,,,0.00,WeatherTracker,2013-01-23 18:26:00,
2013-01-23 13:31:00,16.9,-10.5,30.08,North,353,0.0,3.0,28,0.00,,,0.00,WeatherTracker,2013-01-23 18:31:00,
2013-01-23 13:36:00,16.7,-10.7,30.05,SW,223,2.0,3.0,28,0.00,,,0.00,WeatherTracker,2013-01-23 18:36:00,
2013-01-23 13:41:00,16.9,-10.5,30.05,WNW,286,0.0,4.0,28,0.00,,,0.00,WeatherTracker,2013-01-23 18:41:00,
2013-01-23 13:46:00,17.1,-10.4,30.05,West,263,4.0,4.0,28,0.00,,,0.00,WeatherTracker,2013-01-23 18:46:00,
2013-01-23 13:51:00,16.9,-10.5,30.05,SSE,163,0.0,0.0,28,0.00,,,0.00,WeatherTracker,2013-01-23 18:51:00,
2013-01-23 13:56:00,16.9,-10.5,30.05,WSW,257,4.0,0.0,28,0.00,,,0.00,WeatherTracker,2013-01-23 18:56:00,
2013-01-23 14:01:00,17.1,-10.4,30.05,WSW,255,2.0,3.0,28,0.00,,,0.00,WeatherTracker,2013-01-23 19:01:00,
2013-01-23 14:06:00,16.9,-10.5,30.05,WNW,289,0.0,3.0,28,0.00,,,0.00,WeatherTracker,2013-01-23 19:06:00,
2013-01-23 14:11:00,17.1,-10.4,30.05,West,260,2.0,0.0,28,0.00,,,0.00,WeatherTracker,2013-01-23 19:11:00,
2013-01-23 14:16:00,17.1,-8.3,30.05,SSW,213,2.0,0.0,31,0.00,,,0.00,WeatherTracker,2013-01-23 19:16:00,
2013-01-23 14:21:00,17.2,-8.1,30.02,WSW,254,2.0,3.0,31,0.00,,,0.00,WeatherTracker,2013-01-23 19:21:00,
2013-01-23 14:26:00,17.2,-8.1,30.02,SW,216,0.0,2.0,31,0.00,,,0.00,WeatherTracker,2013-01-23 19:26:00,
2013-01-23 14:31:00,17.2,-8.1,30.02,SW,229,3.0,3.0,31,0.00,,,0.00,WeatherTracker,2013-01-23 19:31:00,
2013-01-23 14:36:00,17.2,-8.1,30.02,SSW,207,3.0,0.0,31,0.00,,,0.00,WeatherTracker,2013-01-23 19:36:00,
2013-01-23 14:41:00,17.6,-5.9,30.02,SW,231,0.0,3.0,34,0.00,,,0.00,WeatherTracker,2013-01-23 19:41:00,
2013-01-23 14:46:00,17.6,-6.6,30.02,WSW,240,2.0,3.0,33,0.00,,,0.00,WeatherTracker,2013-01-23 19:46:00,
2013-01-23 14:51:00,17.8,-6.4,30.02,SSW,194,0.0,3.0,33,0.00,,,0.00,WeatherTracker,2013-01-23 19:51:00,
2013-01-23 14:56:00,17.8,-6.4,30.02,WNW,282,0.0,4.0,33,0.00,,,0.00,WeatherTracker,2013-01-23 19:56:00,
2013-01-23 15:01:00,17.8,-6.4,30.02,South,175,0.0,2.0,33,0.00,,,0.00,WeatherTracker,2013-01-23 20:01:00,
2013-01-23 15:06:00,18.0,-6.2,30.02,WSW,245,3.0,3.0,33,0.00,,,0.00,WeatherTracker,2013-01-23 20:06:00,
2013-01-23 15:11:00,17.8,-6.4,30.02,WNW,289,4.0,4.0,33,0.00,,,0.00,WeatherTracker,2013-01-23 20:11:00,
2013-01-23 15:16:00,17.8,-8.3,30.02,SSW,201,0.0,3.0,30,0.00,,,0.00,WeatherTracker,2013-01-23 20:16:00,
2013-01-23 15:21:00,17.8,-8.3,30.02,WSW,252,3.0,3.0,30,0.00,,,0.00,WeatherTracker,2013-01-23 20:21:00,
2013-01-23 15:26:00,17.8,-8.3,30.02,WSW,241,2.0,4.0,30,0.00,,,0.00,WeatherTracker,2013-01-23 20:26:00,
2013-01-23 15:31:00,17.8,-8.3,30.02,West,261,4.0,5.0,30,0.00,,,0.00,WeatherTracker,2013-01-23 20:31:00,
2013-01-23 15:36:00,17.6,-9.9,30.02,WSW,258,3.0,3.0,28,0.00,,,0.00,WeatherTracker,2013-01-23 20:36:00,
2013-01-23 15:41:00,17.6,-7.8,30.02,SE,134,0.0,4.0,31,0.00,,,0.00,WeatherTracker,2013-01-23 20:41:00,
2013-01-23 15:46:00,18.0,-8.2,30.02,WNW,294,3.0,4.0,30,0.00,,,0.00,WeatherTracker,2013-01-23 20:46:00,
2013-01-23 15:51:00,18.0,-8.2,30.02,West,259,0.0,3.0,30,0.00,,,0.00,WeatherTracker,2013-01-23 20:51:00,
2013-01-23 15:56:00,18.1,-9.4,30.02,South,177,3.0,3.0,28,0.00,,,0.00,WeatherTracker,2013-01-23 20:56:00,
2013-01-23 16:01:00,18.0,-9.6,30.02,SSW,213,0.0,0.0,28,0.00,,,0.00,WeatherTracker,2013-01-23 21:01:00,
2013-01-23 16:06:00,18.0,-9.6,29.99,SE,133,3.0,0.0,28,0.00,,,0.00,WeatherTracker,2013-01-23 21:06:00,
2013-01-23 16:11:00,18.0,-9.6,29.99,SW,226,2.0,4.0,28,0.00,,,0.00,WeatherTracker,2013-01-23 21:11:00,
2013-01-23 16:16:00,18.0,-9.6,29.99,SW,216,4.0,4.0,28,0.00,,,0.00,WeatherTracker,2013-01-23 21:16:00,
2013-01-23 16:21:00,17.8,-9.7,29.99,SSW,206,4.0,0.0,28,0.00,,,0.00,WeatherTracker,2013-01-23 21:21:00,
2013-01-23 16:26:00,17.6,-11.4,29.99,SSW,196,0.0,0.0,26,0.00,,,0.00,WeatherTracker,2013-01-23 21:26:00,
2013-01-23 16:31:00,17.6,-11.4,29.99,West,268,0.0,0.0,26,0.00,,,0.00,WeatherTracker,2013-01-23 21:31:00,
2013-01-23 16:36:00,17.4,-11.5,29.99,WSW,238,0.0,0.0,26,0.00,,,0.00,WeatherTracker,2013-01-23 21:36:00,
2013-01-23 16:41:00,17.4,-11.5,29.99,SW,214,0.0,3.0,26,0.00,,,0.00,WeatherTracker,2013-01-23 21:41:00,
2013-01-23 16:46:00,17.4,-11.5,29.99,SW,223,0.0,2.0,26,0.00,,,0.00,WeatherTracker,2013-01-23 21:46:00,
2013-01-23 16:51:00,17.4,-11.5,29.99,WSW,243,4.0,5.0,26,0.00,,,0.00,WeatherTracker,2013-01-23 21:51:00,
2013-01-23 16:56:00,17.2,-11.7,29.99,WSW,249,3.0,0.0,26,0.00,,,0.00,WeatherTracker,2013-01-23 21:56:00,
2013-01-23 17:01:00,17.2,-11.7,29.99,West,264,3.0,4.0,26,0.00,,,0.00,WeatherTracker,2013-01-23 22:01:00,
2013-01-23 17:06:00,17.1,-11.8,29.99,West,261,3.0,4.0,26,0.00,,,0.00,WeatherTracker,2013-01-23 22:06:00,
2013-01-23 17:11:00,17.1,-11.8,29.99,WSW,252,3.0,3.0,26,0.00,,,0.00,WeatherTracker,2013-01-23 22:11:00,
2013-01-23 17:16:00,17.1,-11.8,29.99,West,271,0.0,4.0,26,0.00,,,0.00,WeatherTracker,2013-01-23 22:16:00,
2013-01-23 17:21:00,16.9,-12.0,29.99,South,185,0.0,0.0,26,0.00,,,0.00,WeatherTracker,2013-01-23 22:21:00,
2013-01-23 17:26:00,16.9,-12.0,29.99,South,177,0.0,3.0,26,0.00,,,0.00,WeatherTracker,2013-01-23 22:26:00,
2013-01-23 17:31:00,16.9,-12.0,29.99,SSW,196,0.0,0.0,26,0.00,,,0.00,WeatherTracker,2013-01-23 22:31:00,
2013-01-23 17:36:00,16.7,-12.2,29.99,SSE,161,0.0,3.0,26,0.00,,,0.00,WeatherTracker,2013-01-23 22:36:00,
2013-01-23 17:41:00,16.5,-12.3,29.99,SSW,199,0.0,0.0,26,0.00,,,0.00,WeatherTracker,2013-01-23 22:41:00,
2013-01-23 17:46:00,16.2,-12.6,29.99,WSW,252,0.0,0.0,26,0.00,,,0.00,WeatherTracker,2013-01-23 22:46:00,
2013-01-23 17:51:00,16.2,-11.1,29.99,SSW,206,0.0,0.0,28,0.00,,,0.00,WeatherTracker,2013-01-23 22:51:00,
2013-01-23 17:56:00,16.0,-11.3,29.99,WSW,257,0.0,0.0,28,0.00,,,0.00,WeatherTracker,2013-01-23 22:56:00,
2013-01-23 18:01:00,16.0,-11.3,29.99,WSW,256,0.0,0.0,28,0.00,,,0.00,WeatherTracker,2013-01-23 23:01:00,
2013-01-23 18:06:00,16.0,-11.3,29.99,West,271,0.0,0.0,28,0.00,,,0.00,WeatherTracker,2013-01-23 23:06:00,
2013-01-23 18:11:00,16.2,-11.1,29.99,SW,231,0.0,0.0,28,0.00,,,0.00,WeatherTracker,2013-01-23 23:11:00,
2013-01-23 18:16:00,16.2,-11.1,29.99,WSW,238,0.0,0.0,28,0.00,,,0.00,WeatherTracker,2013-01-23 23:16:00,
2013-01-23 18:21:00,16.2,-11.1,29.99,SW,226,0.0,2.0,28,0.00,,,0.00,WeatherTracker,2013-01-23 23:21:00,
2013-01-23 18:26:00,16.2,-11.1,29.99,SW,232,0.0,0.0,28,0.00,,,0.00,WeatherTracker,2013-01-23 23:26:00,
2013-01-23 18:31:00,16.2,-11.1,29.99,SW,232,0.0,0.0,28,0.00,,,0.00,WeatherTracker,2013-01-23 23:31:00,
2013-01-23 18:36:00,16.2,-11.1,29.99,WSW,249,2.0,0.0,28,0.00,,,0.00,WeatherTracker,2013-01-23 23:36:00,
2013-01-23 18:41:00,16.2,-11.1,29.99,SW,228,0.0,0.0,28,0.00,,,0.00,WeatherTracker,2013-01-23 23:41:00,
2013-01-23 18:46:00,16.3,-11.0,29.99,SW,223,0.0,0.0,28,0.00,,,0.00,WeatherTracker,2013-01-23 23:46:00,
2013-01-23 18:51:00,16.3,-11.0,29.99,WSW,249,2.0,3.0,28,0.00,,,0.00,WeatherTracker,2013-01-23 23:51:00,
2013-01-23 18:56:00,16.3,-11.0,29.99,WNW,286,0.0,0.0,28,0.00,,,0.00,WeatherTracker,2013-01-23 23:56:00,
2013-01-23 19:01:00,16.5,-10.8,29.99,WSW,252,0.0,0.0,28,0.00,,,0.00,WeatherTracker,2013-01-24 00:01:00,
2013-01-23 19:06:00,16.3,-11.0,29.99,SW,233,0.0,0.0,28,0.00,,,0.00,WeatherTracker,2013-01-24 00:06:00,
2013-01-23 19:11:00,16.5,-10.8,29.99,SSW,207,0.0,5.0,28,0.00,,,0.00,WeatherTracker,2013-01-24 00:11:00,
2013-01-23 19:16:00,16.5,-12.3,29.99,SW,219,0.0,0.0,26,0.00,,,0.00,WeatherTracker,2013-01-24 00:16:00,
2013-01-23 19:21:00,16.5,-12.3,29.99,WSW,243,0.0,0.0,26,0.00,,,0.00,WeatherTracker,2013-01-24 00:21:00,
2013-01-23 19:26:00,16.5,-12.3,29.99,WSW,253,2.0,2.0,26,0.00,,,0.00,WeatherTracker,2013-01-24 00:26:00,
2013-01-23 19:31:00,16.5,-12.3,29.99,South,178,0.0,0.0,26,0.00,,,0.00,WeatherTracker,2013-01-24 00:31:00,
2013-01-23 19:36:00,16.5,-12.3,29.99,SW,230,0.0,0.0,26,0.00,,,0.00,WeatherTracker,2013-01-24 00:36:00,
2013-01-23 19:41:00,16.3,-12.5,29.99,West,264,0.0,0.0,26,0.00,,,0.00,WeatherTracker,2013-01-24 00:41:00,
2013-01-23 19:46:00,16.3,-12.5,29.99,SW,215,0.0,4.0,26,0.00,,,0.00,WeatherTracker,2013-01-24 00:46:00,
2013-01-23 19:51:00,16.2,-12.6,29.99,West,264,0.0,0.0,26,0.00,,,0.00,WeatherTracker,2013-01-24 00:51:00,
2013-01-23 19:56:00,16.2,-11.1,29.99,SW,233,0.0,0.0,28,0.00,,,0.00,WeatherTracker,2013-01-24 00:56:00,
2013-01-23 20:01:00,16.2,-11.1,29.99,SW,224,0.0,3.0,28,0.00,,,0.00,WeatherTracker,2013-01-24 01:01:00,
2013-01-23 20:06:00,16.2,-11.1,29.99,West,263,0.0,4.0,28,0.00,,,0.00,WeatherTracker,2013-01-24 01:06:00,
2013-01-23 20:11:00,16.0,-9.3,29.99,SW,226,0.0,0.0,31,0.00,,,0.00,WeatherTracker,2013-01-24 01:11:00,
2013-01-23 20:16:00,16.0,-9.3,29.99,SW,225,2.0,0.0,31,0.00,,,0.00,WeatherTracker,2013-01-24 01:16:00,
2013-01-23 20:21:00,15.8,-9.4,29.99,SW,214,0.0,0.0,31,0.00,,,0.00,WeatherTracker,2013-01-24 01:21:00,
2013-01-23 20:26:00,15.6,-9.6,29.99,SW,230,0.0,0.0,31,0.00,,,0.00,WeatherTracker,2013-01-24 01:26:00,
2013-01-23 20:31:00,15.6,-7.7,29.99,West,275,0.0,2.0,34,0.00,,,0.00,WeatherTracker,2013-01-24 01:31:00,
2013-01-23 20:36:00,15.6,-7.7,29.99,SW,230,0.0,0.0,34,0.00,,,0.00,WeatherTracker,2013-01-24 01:36:00,
2013-01-23 20:41:00,15.8,-7.5,29.99,SW,230,0.0,0.0,34,0.00,,,0.00,WeatherTracker,2013-01-24 01:41:00,
2013-01-23 20:46:00,15.8,-7.5,29.99,West,259,0.0,0.0,34,0.00,,,0.00,WeatherTracker,2013-01-24 01:46:00,
2013-01-23 20:51:00,15.6,-7.7,29.99,WSW,244,0.0,0.0,34,0.00,,,0.00,WeatherTracker,2013-01-24 01:51:00,
2013-01-23 20:56:00,15.4,-7.9,29.99,West,265,0.0,2.0,34,0.00,,,0.00,WeatherTracker,2013-01-24 01:56:00,
2013-01-23 21:01:00,15.3,-8.0,29.99,West,265,0.0,0.0,34,0.00,,,0.00,WeatherTracker,2013-01-24 02:01:00,
2013-01-23 21:06:00,15.3,-8.0,29.99,West,265,0.0,0.0,34,0.00,,,0.00,WeatherTracker,2013-01-24 02:06:00,
2013-01-23 21:11:00,15.4,-7.3,29.99,West,265,0.0,0.0,35,0.00,,,0.00,WeatherTracker,2013-01-24 02:11:00,
2013-01-23 21:16:00,15.4,-7.3,29.99,West,265,0.0,0.0,35,0.00,,,0.00,WeatherTracker,2013-01-24 02:16:00,
2013-01-23 21:21:00,15.3,-7.4,29.99,WNW,289,0.0,0.0,35,0.00,,,0.00,WeatherTracker,2013-01-24 02:21:00,
2013-01-23 21:26:00,15.3,-7.4,29.99,WNW,289,0.0,0.0,35,0.00,,,0.00,WeatherTracker,2013-01-24 02:26:00,
2013-01-23 21:31:00,15.3,-7.4,29.99,West,278,0.0,0.0,35,0.00,,,0.00,WeatherTracker,2013-01-24 02:31:00,
2013-01-23 21:36:00,15.3,-6.9,29.99,West,279,0.0,0.0,36,0.00,,,0.00,WeatherTracker,2013-01-24 02:36:00,
2013-01-23 21:41:00,15.3,-6.9,29.99,West,279,0.0,0.0,36,0.00,,,0.00,WeatherTracker,2013-01-24 02:41:00,
2013-01-23 21:46:00,15.3,-7.4,29.99,West,262,0.0,0.0,35,0.00,,,0.00,WeatherTracker,2013-01-24 02:46:00,
2013-01-23 21:51:00,15.1,-7.0,29.99,SW,226,0.0,0.0,36,0.00,,,0.00,WeatherTracker,2013-01-24 02:51:00,
2013-01-23 21:56:00,15.1,-7.0,29.99,WSW,241,0.0,0.0,36,0.00,,,0.00,WeatherTracker,2013-01-24 02:56:00,
2013-01-23 22:01:00,15.1,-6.5,29.99,SW,217,0.0,0.0,37,0.00,,,0.00,WeatherTracker,2013-01-24 03:01:00,
2013-01-23 22:06:00,15.1,-6.5,29.99,SW,224,0.0,0.0,37,0.00,,,0.00,WeatherTracker,2013-01-24 03:06:00,
2013-01-23 22:11:00,15.3,-6.3,29.99,SW,232,0.0,0.0,37,0.00,,,0.00,WeatherTracker,2013-01-24 03:11:00,
2013-01-23 22:16:00,15.4,-6.1,29.99,SW,230,0.0,0.0,37,0.00,,,0.00,WeatherTracker,2013-01-24 03:16:00,
2013-01-23 22:21:00,15.4,-6.7,29.99,SW,234,0.0,0.0,36,0.00,,,0.00,WeatherTracker,2013-01-24 03:21:00,
2013-01-23 22:26:00,15.4,-6.1,29.99,SW,236,0.0,0.0,37,0.00,,,0.00,WeatherTracker,2013-01-24 03:26:00,
2013-01-23 22:31:00,15.3,-6.3,29.99,WSW,246,0.0,0.0,37,0.00,,,0.00,WeatherTracker,2013-01-24 03:31:00,
2013-01-23 22:36:00,15.3,-6.3,29.99,West,260,0.0,0.0,37,0.00,,,0.00,WeatherTracker,2013-01-24 03:36:00,
2013-01-23 22:41:00,15.1,-6.5,29.99,West,280,0.0,0.0,37,0.00,,,0.00,WeatherTracker,2013-01-24 03:41:00,
2013-01-23 22:46:00,15.1,-6.5,29.99,West,280,0.0,0.0,37,0.00,,,0.00,WeatherTracker,2013-01-24 03:46:00,
2013-01-23 22:51:00,15.1,-6.5,29.99,West,280,0.0,0.0,37,0.00,,,0.00,WeatherTracker,2013-01-24 03:51:00,
2013-01-23 22:56:00,15.1,-6.5,29.99,West,280,0.0,0.0,37,0.00,,,0.00,WeatherTracker,2013-01-24 03:56:00,
2013-01-23 23:01:00,15.1,-6.5,29.99,West,280,0.0,0.0,37,0.00,,,0.00,WeatherTracker,2013-01-24 04:01:00,
2013-01-23 23:06:00,15.1,-6.5,29.99,West,280,0.0,0.0,37,0.00,,,0.00,WeatherTracker,2013-01-24 04:06:00,
2013-01-23 23:11:00,15.1,-6.5,29.99,West,280,0.0,0.0,37,0.00,,,0.00,WeatherTracker,2013-01-24 04:11:00,
2013-01-23 23:16:00,15.1,-5.9,29.99,West,280,0.0,0.0,38,0.00,,,0.00,WeatherTracker,2013-01-24 04:16:00,
2013-01-23 23:21:00,15.1,-5.9,29.99,West,280,0.0,2.0,38,0.00,,,0.00,WeatherTracker,2013-01-24 04:21:00,
2013-01-23 23:26:00,15.1,-5.9,29.99,West,280,0.0,0.0,38,0.00,,,0.00,WeatherTracker,2013-01-24 04:26:00,
2013-01-23 23:31:00,15.1,-5.9,29.99,West,280,0.0,0.0,38,0.00,,,0.00,WeatherTracker,2013-01-24 04:31:00,
2013-01-23 23:36:00,15.1,-5.4,29.99,West,280,0.0,0.0,39,0.00,,,0.00,WeatherTracker,2013-01-24 04:36:00,
2013-01-23 23:41:00,15.1,-5.4,29.99,West,280,0.0,0.0,39,0.00,,,0.00,WeatherTracker,2013-01-24 04:41:00,
2013-01-23 23:46:00,15.1,-5.4,29.99,West,280,0.0,0.0,39,0.00,,,0.00,WeatherTracker,2013-01-24 04:46:00,
2013-01-23 23:51:00,15.1,-5.4,29.99,West,280,0.0,0.0,39,0.00,,,0.00,WeatherTracker,2013-01-24 04:51:00,
2013-01-23 23:56:00,15.1,-5.4,29.99,West,280,0.0,0.0,39,0.00,,,0.00,WeatherTracker,2013-01-24 04:56:00,